sensor_id;sensor_type;location;lat;lon;timestamp;pressure;altitude;pressure_sealevel;temperature;humidity
19831;BME280;10076;52.008;4.708;2023-04-22T00:01:16;100834.00;;;11.72;100.00
19831;BME280;10076;52.008;4.708;2023-04-22T00:03:43;100838.19;;;11.64;100.00
19831;BME280;10076;52.008;4.708;2023-04-22T00:06:09;100838.53;;;11.59;100.00
19831;BME280;10076;52.008;4.708;2023-04-22T00:08:35;100836.50;;;11.63;100.00
19831;BME280;10076;52.008;4.708;2023-04-22T00:11:00;100842.72;;;11.62;100.00
19831;BME280;10076;52.008;4.708;2023-04-22T00:13:26;100841.94;;;11.49;100.00
19831;BME280;10076;52.008;4.708;2023-04-22T00:15:51;100843.56;;;11.51;100.00
19831;BME280;10076;52.008;4.708;2023-04-22T00:18:17;100842.59;;;11.52;100.00
19831;BME280;10076;52.008;4.708;2023-04-22T00:20:42;100843.97;;;11.45;100.00
19831;BME280;10076;52.008;4.708;2023-04-22T00:23:08;100846.94;;;11.41;100.00
19831;BME280;10076;52.008;4.708;2023-04-22T00:25:34;100841.00;;;11.26;100.00
19831;BME280;10076;52.008;4.708;2023-04-22T00:27:59;100839.41;;;11.24;100.00
19831;BME280;10076;52.008;4.708;2023-04-22T00:30:24;100839.91;;;11.29;100.00
19831;BME280;10076;52.008;4.708;2023-04-22T00:32:50;100839.72;;;11.32;100.00
19831;BME280;10076;52.008;4.708;2023-04-22T00:35:15;100837.06;;;11.32;100.00
19831;BME280;10076;52.008;4.708;2023-04-22T00:37:40;100832.69;;;11.20;100.00
19831;BME280;10076;52.008;4.708;2023-04-22T00:40:06;100827.28;;;11.21;100.00
19831;BME280;10076;52.008;4.708;2023-04-22T00:42:32;100833.38;;;11.22;100.00
19831;BME280;10076;52.008;4.708;2023-04-22T00:44:58;100828.22;;;11.20;100.00
19831;BME280;10076;52.008;4.708;2023-04-22T00:47:24;100830.88;;;11.20;100.00
19831;BME280;10076;52.008;4.708;2023-04-22T00:49:52;100840.88;;;11.28;100.00
19831;BME280;10076;52.008;4.708;2023-04-22T00:52:17;100838.41;;;11.14;100.00
19831;BME280;10076;52.008;4.708;2023-04-22T00:54:43;100840.94;;;11.15;100.00
19831;BME280;10076;52.008;4.708;2023-04-22T00:57:08;100842.81;;;11.13;100.00
19831;BME280;10076;52.008;4.708;2023-04-22T00:59:34;100842.38;;;11.19;100.00
19831;BME280;10076;52.008;4.708;2023-04-22T01:02:00;100843.69;;;11.14;100.00
19831;BME280;10076;52.008;4.708;2023-04-22T01:04:25;100845.78;;;11.21;100.00
19831;BME280;10076;52.008;4.708;2023-04-22T01:06:51;100849.16;;;11.23;100.00
19831;BME280;10076;52.008;4.708;2023-04-22T01:09:21;100850.38;;;11.30;100.00
19831;BME280;10076;52.008;4.708;2023-04-22T01:11:46;100846.28;;;11.26;100.00
19831;BME280;10076;52.008;4.708;2023-04-22T01:14:12;100840.94;;;11.15;100.00
19831;BME280;10076;52.008;4.708;2023-04-22T01:16:37;100837.81;;;10.98;100.00
19831;BME280;10076;52.008;4.708;2023-04-22T01:19:07;100850.31;;;10.96;100.00
19831;BME280;10076;52.008;4.708;2023-04-22T01:21:34;100847.59;;;11.08;100.00
19831;BME280;10076;52.008;4.708;2023-04-22T01:24:00;100839.00;;;10.94;100.00
19831;BME280;10076;52.008;4.708;2023-04-22T01:26:25;100834.78;;;11.15;100.00
19831;BME280;10076;52.008;4.708;2023-04-22T01:28:51;100840.47;;;11.21;100.00
19831;BME280;10076;52.008;4.708;2023-04-22T01:31:17;100842.25;;;10.98;100.00
19831;BME280;10076;52.008;4.708;2023-04-22T01:33:43;100843.31;;;10.95;100.00
19831;BME280;10076;52.008;4.708;2023-04-22T01:36:10;100843.19;;;10.73;100.00
19831;BME280;10076;52.008;4.708;2023-04-22T01:38:36;100840.63;;;10.72;100.00
19831;BME280;10076;52.008;4.708;2023-04-22T01:41:01;100846.69;;;10.61;100.00
19831;BME280;10076;52.008;4.708;2023-04-22T01:43:28;100843.81;;;10.64;100.00
19831;BME280;10076;52.008;4.708;2023-04-22T01:45:55;100847.63;;;10.60;100.00
19831;BME280;10076;52.008;4.708;2023-04-22T01:48:20;100844.16;;;10.60;100.00
19831;BME280;10076;52.008;4.708;2023-04-22T01:50:45;100842.97;;;10.51;100.00
19831;BME280;10076;52.008;4.708;2023-04-22T01:53:11;100844.59;;;10.54;100.00
19831;BME280;10076;52.008;4.708;2023-04-22T01:55:37;100837.50;;;10.54;100.00
19831;BME280;10076;52.008;4.708;2023-04-22T01:58:04;100835.81;;;10.53;100.00
19831;BME280;10076;52.008;4.708;2023-04-22T02:00:29;100840.69;;;10.47;100.00
19831;BME280;10076;52.008;4.708;2023-04-22T02:02:55;100843.84;;;10.52;100.00
19831;BME280;10076;52.008;4.708;2023-04-22T02:05:20;100846.38;;;10.53;100.00
19831;BME280;10076;52.008;4.708;2023-04-22T02:07:45;100851.09;;;10.61;100.00
19831;BME280;10076;52.008;4.708;2023-04-22T02:10:11;100858.94;;;10.50;100.00
19831;BME280;10076;52.008;4.708;2023-04-22T02:12:36;100854.19;;;10.42;100.00
19831;BME280;10076;52.008;4.708;2023-04-22T02:15:02;100847.53;;;10.37;100.00
19831;BME280;10076;52.008;4.708;2023-04-22T02:17:28;100848.16;;;10.40;100.00
19831;BME280;10076;52.008;4.708;2023-04-22T02:19:54;100841.94;;;10.41;100.00
19831;BME280;10076;52.008;4.708;2023-04-22T02:22:20;100847.97;;;10.31;100.00
19831;BME280;10076;52.008;4.708;2023-04-22T02:24:46;100853.97;;;10.33;100.00
19831;BME280;10076;52.008;4.708;2023-04-22T02:27:11;100852.72;;;10.26;100.00
19831;BME280;10076;52.008;4.708;2023-04-22T02:29:36;100847.88;;;10.32;100.00
19831;BME280;10076;52.008;4.708;2023-04-22T02:32:02;100849.75;;;10.31;100.00
19831;BME280;10076;52.008;4.708;2023-04-22T02:34:27;100844.28;;;10.33;100.00
19831;BME280;10076;52.008;4.708;2023-04-22T02:36:52;100836.88;;;10.38;100.00
19831;BME280;10076;52.008;4.708;2023-04-22T02:39:18;100835.38;;;10.34;100.00
19831;BME280;10076;52.008;4.708;2023-04-22T02:41:43;100832.03;;;10.32;100.00
19831;BME280;10076;52.008;4.708;2023-04-22T02:44:08;100820.94;;;10.40;100.00
19831;BME280;10076;52.008;4.708;2023-04-22T02:46:33;100815.97;;;10.48;100.00
19831;BME280;10076;52.008;4.708;2023-04-22T02:48:59;100816.19;;;10.45;100.00
19831;BME280;10076;52.008;4.708;2023-04-22T02:51:25;100805.41;;;10.48;100.00
19831;BME280;10076;52.008;4.708;2023-04-22T02:53:51;100809.13;;;10.45;100.00
19831;BME280;10076;52.008;4.708;2023-04-22T02:56:16;100807.50;;;10.43;100.00
19831;BME280;10076;52.008;4.708;2023-04-22T02:58:42;100801.63;;;10.39;100.00
19831;BME280;10076;52.008;4.708;2023-04-22T03:01:07;100797.69;;;10.45;100.00
19831;BME280;10076;52.008;4.708;2023-04-22T03:03:32;100790.84;;;10.42;100.00
19831;BME280;10076;52.008;4.708;2023-04-22T03:05:57;100794.00;;;10.47;100.00
19831;BME280;10076;52.008;4.708;2023-04-22T03:08:24;100788.09;;;10.44;100.00
19831;BME280;10076;52.008;4.708;2023-04-22T03:10:49;100792.41;;;10.45;100.00
19831;BME280;10076;52.008;4.708;2023-04-22T03:13:15;100792.31;;;10.46;100.00
19831;BME280;10076;52.008;4.708;2023-04-22T03:15:40;100796.88;;;10.44;100.00
19831;BME280;10076;52.008;4.708;2023-04-22T03:18:06;100789.91;;;10.43;100.00
19831;BME280;10076;52.008;4.708;2023-04-22T03:20:31;100785.13;;;10.48;100.00
19831;BME280;10076;52.008;4.708;2023-04-22T03:22:57;100783.19;;;10.63;100.00
19831;BME280;10076;52.008;4.708;2023-04-22T03:25:22;100776.41;;;10.71;100.00
19831;BME280;10076;52.008;4.708;2023-04-22T03:27:47;100782.19;;;10.76;100.00
19831;BME280;10076;52.008;4.708;2023-04-22T03:30:13;100783.16;;;10.75;100.00
19831;BME280;10076;52.008;4.708;2023-04-22T03:32:38;100780.06;;;10.81;100.00
19831;BME280;10076;52.008;4.708;2023-04-22T03:35:04;100774.59;;;10.72;100.00
19831;BME280;10076;52.008;4.708;2023-04-22T03:37:29;100771.13;;;10.71;100.00
19831;BME280;10076;52.008;4.708;2023-04-22T03:39:54;100769.00;;;10.76;100.00
19831;BME280;10076;52.008;4.708;2023-04-22T03:42:20;100762.25;;;10.72;100.00
19831;BME280;10076;52.008;4.708;2023-04-22T03:44:45;100769.63;;;10.80;100.00
19831;BME280;10076;52.008;4.708;2023-04-22T03:47:10;100761.25;;;10.86;100.00
19831;BME280;10076;52.008;4.708;2023-04-22T03:49:36;100762.72;;;10.90;100.00
19831;BME280;10076;52.008;4.708;2023-04-22T03:52:01;100756.88;;;10.97;100.00
19831;BME280;10076;52.008;4.708;2023-04-22T03:54:26;100759.78;;;11.05;100.00
19831;BME280;10076;52.008;4.708;2023-04-22T03:56:52;100761.72;;;11.03;100.00
19831;BME280;10076;52.008;4.708;2023-04-22T03:59:17;100760.75;;;11.04;100.00
19831;BME280;10076;52.008;4.708;2023-04-22T04:01:45;100754.75;;;11.02;100.00
19831;BME280;10076;52.008;4.708;2023-04-22T04:04:10;100752.44;;;10.98;100.00
19831;BME280;10076;52.008;4.708;2023-04-22T04:06:36;100744.63;;;10.96;100.00
19831;BME280;10076;52.008;4.708;2023-04-22T04:09:01;100747.44;;;11.05;100.00
19831;BME280;10076;52.008;4.708;2023-04-22T04:11:28;100747.16;;;10.98;100.00
19831;BME280;10076;52.008;4.708;2023-04-22T04:13:53;100740.19;;;10.97;100.00
19831;BME280;10076;52.008;4.708;2023-04-22T04:16:18;100736.69;;;10.96;100.00
19831;BME280;10076;52.008;4.708;2023-04-22T04:18:44;100740.78;;;11.00;100.00
19831;BME280;10076;52.008;4.708;2023-04-22T04:21:09;100733.78;;;11.11;100.00
19831;BME280;10076;52.008;4.708;2023-04-22T04:23:34;100740.13;;;11.09;100.00
19831;BME280;10076;52.008;4.708;2023-04-22T04:26:00;100733.59;;;11.02;100.00
19831;BME280;10076;52.008;4.708;2023-04-22T04:28:27;100723.75;;;11.04;100.00
19831;BME280;10076;52.008;4.708;2023-04-22T04:30:56;100723.59;;;11.18;100.00
19831;BME280;10076;52.008;4.708;2023-04-22T04:33:21;100723.03;;;11.02;100.00
19831;BME280;10076;52.008;4.708;2023-04-22T04:35:47;100726.34;;;10.93;100.00
19831;BME280;10076;52.008;4.708;2023-04-22T04:38:12;100718.09;;;10.98;100.00
19831;BME280;10076;52.008;4.708;2023-04-22T04:40:38;100725.31;;;11.06;100.00
19831;BME280;10076;52.008;4.708;2023-04-22T04:43:03;100727.25;;;11.04;100.00
19831;BME280;10076;52.008;4.708;2023-04-22T04:45:32;100729.78;;;11.06;100.00
19831;BME280;10076;52.008;4.708;2023-04-22T04:47:58;100728.31;;;11.02;100.00
19831;BME280;10076;52.008;4.708;2023-04-22T04:50:24;100729.44;;;11.10;100.00
19831;BME280;10076;52.008;4.708;2023-04-22T04:52:52;100726.34;;;11.16;100.00
19831;BME280;10076;52.008;4.708;2023-04-22T04:55:17;100727.41;;;11.14;100.00
19831;BME280;10076;52.008;4.708;2023-04-22T04:57:44;100719.25;;;11.17;100.00
19831;BME280;10076;52.008;4.708;2023-04-22T05:00:10;100720.94;;;11.18;100.00
19831;BME280;10076;52.008;4.708;2023-04-22T05:02:35;100715.31;;;11.22;100.00
19831;BME280;10076;52.008;4.708;2023-04-22T05:05:01;100715.19;;;11.24;100.00
19831;BME280;10076;52.008;4.708;2023-04-22T05:07:26;100711.94;;;11.20;100.00
19831;BME280;10076;52.008;4.708;2023-04-22T05:09:52;100711.44;;;11.15;100.00
19831;BME280;10076;52.008;4.708;2023-04-22T05:12:17;100707.72;;;11.18;100.00
19831;BME280;10076;52.008;4.708;2023-04-22T05:14:42;100718.63;;;11.13;100.00
19831;BME280;10076;52.008;4.708;2023-04-22T05:17:08;100719.97;;;11.19;100.00
19831;BME280;10076;52.008;4.708;2023-04-22T05:19:34;100720.47;;;11.24;100.00
19831;BME280;10076;52.008;4.708;2023-04-22T05:21:59;100719.75;;;11.22;100.00
19831;BME280;10076;52.008;4.708;2023-04-22T05:24:24;100726.72;;;11.23;100.00
19831;BME280;10076;52.008;4.708;2023-04-22T05:26:51;100727.09;;;11.29;100.00
19831;BME280;10076;52.008;4.708;2023-04-22T05:29:16;100735.13;;;11.28;100.00
19831;BME280;10076;52.008;4.708;2023-04-22T05:31:41;100747.78;;;11.35;100.00
19831;BME280;10076;52.008;4.708;2023-04-22T05:34:07;100745.13;;;11.35;100.00
19831;BME280;10076;52.008;4.708;2023-04-22T05:36:32;100746.50;;;11.41;100.00
19831;BME280;10076;52.008;4.708;2023-04-22T05:38:57;100746.63;;;11.50;100.00
19831;BME280;10076;52.008;4.708;2023-04-22T05:41:23;100749.94;;;11.54;100.00
19831;BME280;10076;52.008;4.708;2023-04-22T05:43:48;100748.97;;;11.55;100.00
19831;BME280;10076;52.008;4.708;2023-04-22T05:46:14;100739.84;;;11.59;100.00
19831;BME280;10076;52.008;4.708;2023-04-22T05:48:39;100742.84;;;11.65;100.00
19831;BME280;10076;52.008;4.708;2023-04-22T05:51:04;100737.56;;;11.76;100.00
19831;BME280;10076;52.008;4.708;2023-04-22T05:53:30;100736.63;;;11.88;100.00
19831;BME280;10076;52.008;4.708;2023-04-22T05:55:55;100727.38;;;11.72;100.00
19831;BME280;10076;52.008;4.708;2023-04-22T05:58:20;100728.59;;;11.89;100.00
19831;BME280;10076;52.008;4.708;2023-04-22T06:00:46;100728.81;;;12.08;100.00
19831;BME280;10076;52.008;4.708;2023-04-22T06:03:11;100726.78;;;12.12;100.00
19831;BME280;10076;52.008;4.708;2023-04-22T06:05:36;100727.03;;;12.20;100.00
19831;BME280;10076;52.008;4.708;2023-04-22T06:08:01;100717.06;;;12.23;100.00
19831;BME280;10076;52.008;4.708;2023-04-22T06:10:27;100708.38;;;12.21;100.00
19831;BME280;10076;52.008;4.708;2023-04-22T06:12:52;100715.09;;;12.25;100.00
19831;BME280;10076;52.008;4.708;2023-04-22T06:15:17;100716.78;;;12.37;100.00
19831;BME280;10076;52.008;4.708;2023-04-22T06:17:43;100712.69;;;12.44;100.00
19831;BME280;10076;52.008;4.708;2023-04-22T06:20:10;100710.50;;;12.49;100.00
19831;BME280;10076;52.008;4.708;2023-04-22T06:22:35;100708.56;;;12.62;100.00
19831;BME280;10076;52.008;4.708;2023-04-22T06:25:01;100713.97;;;12.71;100.00
19831;BME280;10076;52.008;4.708;2023-04-22T06:27:26;100708.28;;;12.76;100.00
19831;BME280;10076;52.008;4.708;2023-04-22T06:29:52;100716.34;;;12.85;100.00
19831;BME280;10076;52.008;4.708;2023-04-22T06:32:17;100708.97;;;13.00;100.00
19831;BME280;10076;52.008;4.708;2023-04-22T06:34:42;100715.94;;;13.01;100.00
19831;BME280;10076;52.008;4.708;2023-04-22T06:37:07;100706.69;;;12.95;100.00
19831;BME280;10076;52.008;4.708;2023-04-22T06:39:33;100704.63;;;12.99;100.00
19831;BME280;10076;52.008;4.708;2023-04-22T06:41:58;100695.16;;;13.16;100.00
19831;BME280;10076;52.008;4.708;2023-04-22T06:44:23;100702.78;;;13.30;100.00
19831;BME280;10076;52.008;4.708;2023-04-22T06:46:50;100694.19;;;13.38;100.00
19831;BME280;10076;52.008;4.708;2023-04-22T06:49:15;100692.56;;;13.46;100.00
19831;BME280;10076;52.008;4.708;2023-04-22T06:51:40;100689.28;;;13.54;100.00
19831;BME280;10076;52.008;4.708;2023-04-22T06:54:06;100698.25;;;13.82;100.00
19831;BME280;10076;52.008;4.708;2023-04-22T06:56:31;100689.91;;;13.67;100.00
19831;BME280;10076;52.008;4.708;2023-04-22T06:58:56;100688.75;;;13.80;100.00
19831;BME280;10076;52.008;4.708;2023-04-22T07:01:22;100687.84;;;14.00;100.00
19831;BME280;10076;52.008;4.708;2023-04-22T07:03:47;100685.59;;;14.25;100.00
19831;BME280;10076;52.008;4.708;2023-04-22T07:06:12;100690.94;;;14.35;100.00
19831;BME280;10076;52.008;4.708;2023-04-22T07:08:38;100683.03;;;14.53;100.00
19831;BME280;10076;52.008;4.708;2023-04-22T07:11:03;100691.72;;;14.65;100.00
19831;BME280;10076;52.008;4.708;2023-04-22T07:13:28;100686.75;;;14.90;100.00
19831;BME280;10076;52.008;4.708;2023-04-22T07:16:00;100680.56;;;15.09;100.00
19831;BME280;10076;52.008;4.708;2023-04-22T07:18:26;100687.06;;;15.25;100.00
19831;BME280;10076;52.008;4.708;2023-04-22T07:20:52;100685.91;;;15.18;100.00
19831;BME280;10076;52.008;4.708;2023-04-22T07:23:17;100693.03;;;15.27;100.00
19831;BME280;10076;52.008;4.708;2023-04-22T07:25:42;100695.16;;;15.33;100.00
19831;BME280;10076;52.008;4.708;2023-04-22T07:28:08;100690.22;;;15.47;100.00
19831;BME280;10076;52.008;4.708;2023-04-22T07:30:33;100692.56;;;15.60;100.00
19831;BME280;10076;52.008;4.708;2023-04-22T07:32:58;100693.66;;;15.76;100.00
19831;BME280;10076;52.008;4.708;2023-04-22T07:35:24;100706.38;;;15.91;100.00
19831;BME280;10076;52.008;4.708;2023-04-22T07:37:49;100707.19;;;16.01;100.00
19831;BME280;10076;52.008;4.708;2023-04-22T07:40:15;100699.78;;;15.95;100.00
19831;BME280;10076;52.008;4.708;2023-04-22T07:42:40;100716.13;;;16.10;100.00
19831;BME280;10076;52.008;4.708;2023-04-22T07:45:06;100704.31;;;15.76;100.00
19831;BME280;10076;52.008;4.708;2023-04-22T07:47:31;100701.09;;;15.73;100.00
19831;BME280;10076;52.008;4.708;2023-04-22T07:49:56;100701.41;;;15.70;100.00
19831;BME280;10076;52.008;4.708;2023-04-22T07:52:22;100706.19;;;15.28;100.00
19831;BME280;10076;52.008;4.708;2023-04-22T07:54:48;100704.50;;;15.18;100.00
19831;BME280;10076;52.008;4.708;2023-04-22T07:57:14;100691.38;;;15.26;100.00
19831;BME280;10076;52.008;4.708;2023-04-22T07:59:39;100686.44;;;15.31;100.00
19831;BME280;10076;52.008;4.708;2023-04-22T08:02:05;100676.66;;;15.41;100.00
19831;BME280;10076;52.008;4.708;2023-04-22T08:04:30;100677.78;;;15.48;100.00
19831;BME280;10076;52.008;4.708;2023-04-22T08:06:55;100680.25;;;15.68;100.00
19831;BME280;10076;52.008;4.708;2023-04-22T08:09:21;100666.63;;;15.81;100.00
19831;BME280;10076;52.008;4.708;2023-04-22T08:11:47;100650.63;;;15.81;100.00
19831;BME280;10076;52.008;4.708;2023-04-22T08:14:12;100646.59;;;16.13;100.00
19831;BME280;10076;52.008;4.708;2023-04-22T08:16:38;100657.31;;;16.30;100.00
19831;BME280;10076;52.008;4.708;2023-04-22T08:19:04;100664.16;;;16.77;100.00
19831;BME280;10076;52.008;4.708;2023-04-22T08:21:29;100662.19;;;17.31;100.00
19831;BME280;10076;52.008;4.708;2023-04-22T08:23:55;100659.69;;;17.80;100.00
19831;BME280;10076;52.008;4.708;2023-04-22T08:26:20;100658.13;;;18.20;100.00
19831;BME280;10076;52.008;4.708;2023-04-22T08:28:46;100672.19;;;18.30;100.00
19831;BME280;10076;52.008;4.708;2023-04-22T08:31:11;100673.91;;;18.14;100.00
19831;BME280;10076;52.008;4.708;2023-04-22T08:33:38;100671.66;;;18.27;100.00
19831;BME280;10076;52.008;4.708;2023-04-22T08:36:04;100671.16;;;18.65;100.00
19831;BME280;10076;52.008;4.708;2023-04-22T08:38:29;100671.34;;;18.87;100.00
19831;BME280;10076;52.008;4.708;2023-04-22T08:40:56;100670.47;;;18.63;100.00
19831;BME280;10076;52.008;4.708;2023-04-22T08:43:24;100663.81;;;18.74;100.00
19831;BME280;10076;52.008;4.708;2023-04-22T08:45:51;100655.44;;;18.70;100.00
19831;BME280;10076;52.008;4.708;2023-04-22T08:48:18;100663.31;;;18.79;100.00
19831;BME280;10076;52.008;4.708;2023-04-22T08:50:45;100662.81;;;18.75;100.00
19831;BME280;10076;52.008;4.708;2023-04-22T08:53:12;100654.28;;;18.88;100.00
19831;BME280;10076;52.008;4.708;2023-04-22T08:55:38;100655.81;;;18.98;100.00
19831;BME280;10076;52.008;4.708;2023-04-22T08:58:05;100646.50;;;19.10;100.00
19831;BME280;10076;52.008;4.708;2023-04-22T09:00:31;100632.41;;;19.56;100.00
19831;BME280;10076;52.008;4.708;2023-04-22T09:03:00;100635.84;;;20.04;100.00
19831;BME280;10076;52.008;4.708;2023-04-22T09:05:27;100633.25;;;20.57;100.00
19831;BME280;10076;52.008;4.708;2023-04-22T09:07:52;100619.56;;;20.74;100.00
19831;BME280;10076;52.008;4.708;2023-04-22T09:10:18;100622.94;;;20.98;100.00
19831;BME280;10076;52.008;4.708;2023-04-22T09:12:44;100618.56;;;21.56;100.00
19831;BME280;10076;52.008;4.708;2023-04-22T09:15:11;100614.16;;;21.92;100.00
19831;BME280;10076;52.008;4.708;2023-04-22T09:17:36;100602.44;;;22.14;100.00
19831;BME280;10076;52.008;4.708;2023-04-22T09:20:05;100593.56;;;21.99;100.00
19831;BME280;10076;52.008;4.708;2023-04-22T09:22:40;100589.69;;;21.87;100.00
19831;BME280;10076;52.008;4.708;2023-04-22T09:25:16;100579.41;;;21.40;100.00
19831;BME280;10076;52.008;4.708;2023-04-22T09:27:47;100570.66;;;21.23;100.00
19831;BME280;10076;52.008;4.708;2023-04-22T09:30:13;100575.91;;;21.02;100.00
19831;BME280;10076;52.008;4.708;2023-04-22T09:32:39;100569.91;;;20.70;100.00
19831;BME280;10076;52.008;4.708;2023-04-22T09:35:05;100582.06;;;20.58;100.00
19831;BME280;10076;52.008;4.708;2023-04-22T09:37:31;100592.59;;;20.68;100.00
19831;BME280;10076;52.008;4.708;2023-04-22T09:39:57;100604.66;;;20.94;100.00
19831;BME280;10076;52.008;4.708;2023-04-22T09:42:22;100618.31;;;21.44;100.00
19831;BME280;10076;52.008;4.708;2023-04-22T09:44:49;100612.28;;;21.93;100.00
19831;BME280;10076;52.008;4.708;2023-04-22T09:47:18;100627.88;;;22.96;100.00
19831;BME280;10076;52.008;4.708;2023-04-22T09:49:46;100632.09;;;24.36;100.00
19831;BME280;10076;52.008;4.708;2023-04-22T09:52:22;100632.63;;;24.58;100.00
19831;BME280;10076;52.008;4.708;2023-04-22T09:54:50;100633.03;;;24.15;100.00
19831;BME280;10076;52.008;4.708;2023-04-22T09:57:19;100640.25;;;24.08;100.00
19831;BME280;10076;52.008;4.708;2023-04-22T09:59:45;100642.59;;;24.24;100.00
19831;BME280;10076;52.008;4.708;2023-04-22T10:02:10;100642.16;;;24.21;100.00
19831;BME280;10076;52.008;4.708;2023-04-22T10:04:36;100636.72;;;24.08;100.00
19831;BME280;10076;52.008;4.708;2023-04-22T10:07:02;100638.97;;;24.04;100.00
19831;BME280;10076;52.008;4.708;2023-04-22T10:09:27;100636.03;;;23.45;100.00
19831;BME280;10076;52.008;4.708;2023-04-22T10:11:54;100624.47;;;23.02;100.00
19831;BME280;10076;52.008;4.708;2023-04-22T10:14:21;100628.06;;;23.09;100.00
19831;BME280;10076;52.008;4.708;2023-04-22T10:16:47;100626.28;;;22.81;100.00
19831;BME280;10076;52.008;4.708;2023-04-22T10:19:16;100618.06;;;22.33;100.00
19831;BME280;10076;52.008;4.708;2023-04-22T10:21:43;100624.34;;;22.11;100.00
19831;BME280;10076;52.008;4.708;2023-04-22T10:24:17;100623.13;;;21.56;100.00
19831;BME280;10076;52.008;4.708;2023-04-22T10:26:47;100629.31;;;21.20;100.00
19831;BME280;10076;52.008;4.708;2023-04-22T10:29:14;100639.69;;;21.00;100.00
19831;BME280;10076;52.008;4.708;2023-04-22T10:31:42;100638.28;;;20.21;100.00
19831;BME280;10076;52.008;4.708;2023-04-22T10:34:13;100646.75;;;19.87;100.00
19831;BME280;10076;52.008;4.708;2023-04-22T10:36:52;100649.84;;;19.52;100.00
19831;BME280;10076;52.008;4.708;2023-04-22T10:39:17;100652.84;;;19.09;100.00
19831;BME280;10076;52.008;4.708;2023-04-22T10:41:50;100641.09;;;18.86;100.00
19831;BME280;10076;52.008;4.708;2023-04-22T10:44:16;100638.34;;;18.55;100.00
19831;BME280;10076;52.008;4.708;2023-04-22T10:49:21;100648.25;;;18.21;100.00
19831;BME280;10076;52.008;4.708;2023-04-22T10:51:49;100647.44;;;18.20;100.00
19831;BME280;10076;52.008;4.708;2023-04-22T10:59:29;100636.28;;;17.74;100.00
19831;BME280;10076;52.008;4.708;2023-04-22T11:02:00;100638.25;;;17.64;100.00
19831;BME280;10076;52.008;4.708;2023-04-22T11:04:26;100626.63;;;17.73;100.00
19831;BME280;10076;52.008;4.708;2023-04-22T11:07:14;100620.63;;;17.46;100.00
19831;BME280;10076;52.008;4.708;2023-04-22T11:09:43;100605.59;;;17.45;100.00
19831;BME280;10076;52.008;4.708;2023-04-22T11:15:08;100638.56;;;17.19;100.00
19831;BME280;10076;52.008;4.708;2023-04-22T11:17:36;100670.50;;;16.93;100.00
19831;BME280;10076;52.008;4.708;2023-04-22T11:20:02;100662.84;;;16.63;100.00
19831;BME280;10076;52.008;4.708;2023-04-22T11:22:33;100646.53;;;16.49;100.00
19831;BME280;10076;52.008;4.708;2023-04-22T11:25:00;100649.41;;;16.38;100.00
19831;BME280;10076;52.008;4.708;2023-04-22T11:27:26;100659.69;;;16.24;100.00
19831;BME280;10076;52.008;4.708;2023-04-22T11:32:32;100678.38;;;15.88;100.00
19831;BME280;10076;52.008;4.708;2023-04-22T11:35:02;100667.47;;;15.72;100.00
19831;BME280;10076;52.008;4.708;2023-04-22T11:37:29;100671.16;;;15.61;100.00
19831;BME280;10076;52.008;4.708;2023-04-22T11:39:59;100669.91;;;15.46;100.00
19831;BME280;10076;52.008;4.708;2023-04-22T11:42:24;100667.56;;;15.24;100.00
19831;BME280;10076;52.008;4.708;2023-04-22T11:44:50;100664.31;;;15.12;100.00
19831;BME280;10076;52.008;4.708;2023-04-22T11:47:15;100651.31;;;15.37;100.00
19831;BME280;10076;52.008;4.708;2023-04-22T11:49:40;100643.91;;;15.03;100.00
19831;BME280;10076;52.008;4.708;2023-04-22T11:52:05;100658.31;;;15.00;100.00
19831;BME280;10076;52.008;4.708;2023-04-22T11:54:35;100667.97;;;14.92;100.00
19831;BME280;10076;52.008;4.708;2023-04-22T11:57:03;100649.06;;;14.66;100.00
19831;BME280;10076;52.008;4.708;2023-04-22T11:59:28;100640.78;;;14.60;100.00
19831;BME280;10076;52.008;4.708;2023-04-22T12:01:53;100643.59;;;14.58;100.00
19831;BME280;10076;52.008;4.708;2023-04-22T12:04:22;100656.03;;;14.49;100.00
19831;BME280;10076;52.008;4.708;2023-04-22T12:06:50;100682.25;;;14.33;100.00
19831;BME280;10076;52.008;4.708;2023-04-22T12:09:16;100699.75;;;14.26;100.00
19831;BME280;10076;52.008;4.708;2023-04-22T12:11:44;100676.69;;;14.06;100.00
19831;BME280;10076;52.008;4.708;2023-04-22T12:14:10;100641.13;;;14.18;100.00
19831;BME280;10076;52.008;4.708;2023-04-22T12:16:40;100617.94;;;14.20;100.00
19831;BME280;10076;52.008;4.708;2023-04-22T12:19:05;100608.91;;;14.50;100.00
19831;BME280;10076;52.008;4.708;2023-04-22T12:21:31;100609.75;;;14.60;100.00
19831;BME280;10076;52.008;4.708;2023-04-22T12:23:59;100609.22;;;14.66;100.00
19831;BME280;10076;52.008;4.708;2023-04-22T12:26:25;100638.88;;;14.90;100.00
19831;BME280;10076;52.008;4.708;2023-04-22T12:28:51;100640.94;;;15.15;100.00
19831;BME280;10076;52.008;4.708;2023-04-22T12:31:17;100645.00;;;15.38;100.00
19831;BME280;10076;52.008;4.708;2023-04-22T12:33:44;100657.47;;;15.47;100.00
19831;BME280;10076;52.008;4.708;2023-04-22T12:36:09;100649.22;;;15.31;100.00
19831;BME280;10076;52.008;4.708;2023-04-22T12:38:35;100659.56;;;14.96;100.00
19831;BME280;10076;52.008;4.708;2023-04-22T12:41:01;100643.34;;;15.09;100.00
19831;BME280;10076;52.008;4.708;2023-04-22T12:43:27;100645.16;;;15.27;100.00
19831;BME280;10076;52.008;4.708;2023-04-22T12:45:52;100651.13;;;15.57;100.00
19831;BME280;10076;52.008;4.708;2023-04-22T12:48:17;100651.34;;;15.83;100.00